sensor_id;sensor_type;location;lat;lon;timestamp;temperature;humidity
68480;DHT22;55469;48.934;12.050;2023-07-22T00:00:26;23.20;54.40
68480;DHT22;55469;48.934;12.050;2023-07-22T00:02:52;23.10;55.30
68480;DHT22;55469;48.934;12.050;2023-07-22T00:05:17;23.10;55.30
68480;DHT22;55469;48.934;12.050;2023-07-22T00:08:08;23.10;54.50
68480;DHT22;55469;48.934;12.050;2023-07-22T00:10:33;23.10;54.50
68480;DHT22;55469;48.934;12.050;2023-07-22T00:12:59;23.00;54.50
68480;DHT22;55469;48.934;12.050;2023-07-22T00:15:26;23.00;54.20
68480;DHT22;55469;48.934;12.050;2023-07-22T00:17:52;23.00;54.70
68480;DHT22;55469;48.934;12.050;2023-07-22T00:20:17;23.00;54.20
68480;DHT22;55469;48.934;12.050;2023-07-22T00:23:08;22.90;54.30
68480;DHT22;55469;48.934;12.050;2023-07-22T00:25:35;22.90;54.30
68480;DHT22;55469;48.934;12.050;2023-07-22T00:28:01;22.90;54.40
68480;DHT22;55469;48.934;12.050;2023-07-22T00:30:26;22.80;54.30
68480;DHT22;55469;48.934;12.050;2023-07-22T00:32:53;22.80;54.20
68480;DHT22;55469;48.934;12.050;2023-07-22T00:39:06;22.70;54.30
68480;DHT22;55469;48.934;12.050;2023-07-22T00:41:32;22.70;54.30
68480;DHT22;55469;48.934;12.050;2023-07-22T00:43:58;22.60;54.50
68480;DHT22;55469;48.934;12.050;2023-07-22T00:46:23;22.60;54.00
68480;DHT22;55469;48.934;12.050;2023-07-22T00:48:50;22.50;54.40
68480;DHT22;55469;48.934;12.050;2023-07-22T00:51:17;22.50;54.30
68480;DHT22;55469;48.934;12.050;2023-07-22T00:53:42;22.50;54.20
68480;DHT22;55469;48.934;12.050;2023-07-22T00:56:08;22.50;54.40
68480;DHT22;55469;48.934;12.050;2023-07-22T00:58:34;22.40;54.10
68480;DHT22;55469;48.934;12.050;2023-07-22T01:01:00;22.40;54.40
68480;DHT22;55469;48.934;12.050;2023-07-22T01:03:25;22.40;54.40
68480;DHT22;55469;48.934;12.050;2023-07-22T01:05:52;22.40;54.50
68480;DHT22;55469;48.934;12.050;2023-07-22T01:08:20;22.30;54.40
68480;DHT22;55469;48.934;12.050;2023-07-22T01:10:46;22.30;54.50
68480;DHT22;55469;48.934;12.050;2023-07-22T01:13:43;22.30;54.50
68480;DHT22;55469;48.934;12.050;2023-07-22T01:16:12;22.30;54.40
68480;DHT22;55469;48.934;12.050;2023-07-22T01:22:08;22.20;54.80
68480;DHT22;55469;48.934;12.050;2023-07-22T01:24:36;22.20;54.80
68480;DHT22;55469;48.934;12.050;2023-07-22T01:27:03;22.20;54.80
68480;DHT22;55469;48.934;12.050;2023-07-22T01:29:34;22.20;54.70
68480;DHT22;55469;48.934;12.050;2023-07-22T01:31:59;22.10;54.70
68480;DHT22;55469;48.934;12.050;2023-07-22T01:34:25;22.10;54.60
68480;DHT22;55469;48.934;12.050;2023-07-22T01:36:51;22.10;54.80
68480;DHT22;55469;48.934;12.050;2023-07-22T01:39:22;22.00;54.80
68480;DHT22;55469;48.934;12.050;2023-07-22T01:41:48;22.10;54.70
68480;DHT22;55469;48.934;12.050;2023-07-22T01:47:46;22.00;54.80
68480;DHT22;55469;48.934;12.050;2023-07-22T01:50:12;22.00;54.70
68480;DHT22;55469;48.934;12.050;2023-07-22T01:52:44;21.90;54.90
68480;DHT22;55469;48.934;12.050;2023-07-22T01:55:11;21.90;55.00
68480;DHT22;55469;48.934;12.050;2023-07-22T01:57:38;21.90;54.80
68480;DHT22;55469;48.934;12.050;2023-07-22T02:00:05;21.90;54.90
68480;DHT22;55469;48.934;12.050;2023-07-22T02:02:32;21.80;54.90
68480;DHT22;55469;48.934;12.050;2023-07-22T02:04:57;21.80;54.80
68480;DHT22;55469;48.934;12.050;2023-07-22T02:07:23;21.80;54.90
68480;DHT22;55469;48.934;12.050;2023-07-22T02:09:51;21.80;54.90
68480;DHT22;55469;48.934;12.050;2023-07-22T02:12:18;21.80;55.20
68480;DHT22;55469;48.934;12.050;2023-07-22T02:14:43;21.70;55.00
68480;DHT22;55469;48.934;12.050;2023-07-22T02:17:09;21.70;55.20
68480;DHT22;55469;48.934;12.050;2023-07-22T02:19:36;21.70;55.20
68480;DHT22;55469;48.934;12.050;2023-07-22T02:22:03;21.60;55.10
68480;DHT22;55469;48.934;12.050;2023-07-22T02:24:30;21.60;55.40
68480;DHT22;55469;48.934;12.050;2023-07-22T02:27:21;21.60;55.30
68480;DHT22;55469;48.934;12.050;2023-07-22T02:29:47;21.60;55.30
68480;DHT22;55469;48.934;12.050;2023-07-22T02:32:12;21.50;55.40
68480;DHT22;55469;48.934;12.050;2023-07-22T02:34:38;21.50;55.50
68480;DHT22;55469;48.934;12.050;2023-07-22T02:37:04;21.50;55.40
68480;DHT22;55469;48.934;12.050;2023-07-22T02:39:30;21.50;55.70
68480;DHT22;55469;48.934;12.050;2023-07-22T02:41:55;21.40;55.60
68480;DHT22;55469;48.934;12.050;2023-07-22T02:44:21;21.40;55.70
68480;DHT22;55469;48.934;12.050;2023-07-22T02:46:47;21.40;55.70
68480;DHT22;55469;48.934;12.050;2023-07-22T02:49:13;21.40;55.70
68480;DHT22;55469;48.934;12.050;2023-07-22T02:51:39;21.40;55.80
68480;DHT22;55469;48.934;12.050;2023-07-22T02:54:05;21.30;55.70
68480;DHT22;55469;48.934;12.050;2023-07-22T02:56:30;21.30;56.80
68480;DHT22;55469;48.934;12.050;2023-07-22T02:58:56;21.30;55.80
68480;DHT22;55469;48.934;12.050;2023-07-22T03:01:23;21.20;55.80
68480;DHT22;55469;48.934;12.050;2023-07-22T03:04:24;21.20;55.90
68480;DHT22;55469;48.934;12.050;2023-07-22T03:06:50;21.20;56.00
68480;DHT22;55469;48.934;12.050;2023-07-22T03:09:15;21.10;56.00
68480;DHT22;55469;48.934;12.050;2023-07-22T03:11:41;21.10;56.10
68480;DHT22;55469;48.934;12.050;2023-07-22T03:14:07;21.10;56.10
68480;DHT22;55469;48.934;12.050;2023-07-22T03:16:32;21.00;56.10
68480;DHT22;55469;48.934;12.050;2023-07-22T03:18:58;21.00;56.20
68480;DHT22;55469;48.934;12.050;2023-07-22T03:25:06;21.00;56.30
68480;DHT22;55469;48.934;12.050;2023-07-22T03:27:35;20.90;56.40
68480;DHT22;55469;48.934;12.050;2023-07-22T03:30:03;20.90;56.40
68480;DHT22;55469;48.934;12.050;2023-07-22T03:32:35;20.90;57.40
68480;DHT22;55469;48.934;12.050;2023-07-22T03:35:02;20.80;56.30
68480;DHT22;55469;48.934;12.050;2023-07-22T03:41:09;20.80;56.40
68480;DHT22;55469;48.934;12.050;2023-07-22T03:47:15;20.80;56.50
68480;DHT22;55469;48.934;12.050;2023-07-22T03:49:40;20.70;56.50
68480;DHT22;55469;48.934;12.050;2023-07-22T03:52:43;20.70;56.60
68480;DHT22;55469;48.934;12.050;2023-07-22T03:55:09;20.70;56.50
68480;DHT22;55469;48.934;12.050;2023-07-22T03:57:35;20.70;56.50
68480;DHT22;55469;48.934;12.050;2023-07-22T04:00:17;20.60;56.40
68480;DHT22;55469;48.934;12.050;2023-07-22T04:02:43;20.60;56.50
68480;DHT22;55469;48.934;12.050;2023-07-22T04:05:09;20.60;56.50
68480;DHT22;55469;48.934;12.050;2023-07-22T04:10:40;20.60;56.30
68480;DHT22;55469;48.934;12.050;2023-07-22T04:16:33;20.50;56.40
68480;DHT22;55469;48.934;12.050;2023-07-22T04:18:58;20.50;56.40
68480;DHT22;55469;48.934;12.050;2023-07-22T04:21:24;20.50;56.40
68480;DHT22;55469;48.934;12.050;2023-07-22T04:23:50;20.50;56.50
68480;DHT22;55469;48.934;12.050;2023-07-22T04:26:15;20.50;56.50
68480;DHT22;55469;48.934;12.050;2023-07-22T04:28:53;20.50;56.40
68480;DHT22;55469;48.934;12.050;2023-07-22T04:31:19;20.50;56.40
68480;DHT22;55469;48.934;12.050;2023-07-22T04:33:44;20.50;56.40
68480;DHT22;55469;48.934;12.050;2023-07-22T04:36:10;20.50;56.40
68480;DHT22;55469;48.934;12.050;2023-07-22T04:38:36;20.50;56.40
68480;DHT22;55469;48.934;12.050;2023-07-22T04:41:18;20.50;56.30
68480;DHT22;55469;48.934;12.050;2023-07-22T04:43:44;20.50;56.40
68480;DHT22;55469;48.934;12.050;2023-07-22T04:46:10;20.50;56.50
68480;DHT22;55469;48.934;12.050;2023-07-22T04:48:36;20.50;56.40
68480;DHT22;55469;48.934;12.050;2023-07-22T04:51:08;20.50;56.40
68480;DHT22;55469;48.934;12.050;2023-07-22T04:53:34;20.50;56.60
68480;DHT22;55469;48.934;12.050;2023-07-22T04:56:00;20.50;56.60
68480;DHT22;55469;48.934;12.050;2023-07-22T04:58:28;20.50;56.60
68480;DHT22;55469;48.934;12.050;2023-07-22T05:00:54;20.50;56.40
68480;DHT22;55469;48.934;12.050;2023-07-22T05:03:19;20.50;56.50
68480;DHT22;55469;48.934;12.050;2023-07-22T05:05:45;20.50;57.50
68480;DHT22;55469;48.934;12.050;2023-07-22T05:08:11;20.50;56.60
68480;DHT22;55469;48.934;12.050;2023-07-22T05:10:39;20.50;56.40
68480;DHT22;55469;48.934;12.050;2023-07-22T05:13:28;20.50;56.50
68480;DHT22;55469;48.934;12.050;2023-07-22T05:15:54;20.50;56.90
68480;DHT22;55469;48.934;12.050;2023-07-22T05:21:53;20.50;56.70
68480;DHT22;55469;48.934;12.050;2023-07-22T05:24:19;20.40;57.10
68480;DHT22;55469;48.934;12.050;2023-07-22T05:26:46;20.50;57.00
68480;DHT22;55469;48.934;12.050;2023-07-22T05:29:14;20.50;57.00
68480;DHT22;55469;48.934;12.050;2023-07-22T05:31:40;20.50;57.10
68480;DHT22;55469;48.934;12.050;2023-07-22T05:34:07;20.50;57.10
68480;DHT22;55469;48.934;12.050;2023-07-22T05:36:33;20.40;57.00
68480;DHT22;55469;48.934;12.050;2023-07-22T05:38:59;20.50;57.10
68480;DHT22;55469;48.934;12.050;2023-07-22T05:41:26;20.40;57.10
68480;DHT22;55469;48.934;12.050;2023-07-22T05:43:51;20.40;57.10
68480;DHT22;55469;48.934;12.050;2023-07-22T05:46:19;20.40;57.10
68480;DHT22;55469;48.934;12.050;2023-07-22T05:48:45;20.40;57.20
68480;DHT22;55469;48.934;12.050;2023-07-22T05:51:18;20.40;57.10
68480;DHT22;55469;48.934;12.050;2023-07-22T05:53:44;20.40;57.20
68480;DHT22;55469;48.934;12.050;2023-07-22T05:56:10;20.40;57.10
68480;DHT22;55469;48.934;12.050;2023-07-22T05:58:41;20.40;57.10
68480;DHT22;55469;48.934;12.050;2023-07-22T06:01:07;20.40;57.10
68480;DHT22;55469;48.934;12.050;2023-07-22T06:03:33;20.40;57.10
68480;DHT22;55469;48.934;12.050;2023-07-22T06:05:59;20.40;57.10
68480;DHT22;55469;48.934;12.050;2023-07-22T06:08:24;20.40;57.10
68480;DHT22;55469;48.934;12.050;2023-07-22T06:10:51;20.40;57.20
68480;DHT22;55469;48.934;12.050;2023-07-22T06:13:17;20.40;57.20
68480;DHT22;55469;48.934;12.050;2023-07-22T06:15:43;20.40;57.20
68480;DHT22;55469;48.934;12.050;2023-07-22T06:18:24;20.40;57.50
68480;DHT22;55469;48.934;12.050;2023-07-22T06:20:50;20.40;57.20
68480;DHT22;55469;48.934;12.050;2023-07-22T06:23:16;20.40;57.20
68480;DHT22;55469;48.934;12.050;2023-07-22T06:25:42;20.40;57.30
68480;DHT22;55469;48.934;12.050;2023-07-22T06:28:08;20.40;57.60
68480;DHT22;55469;48.934;12.050;2023-07-22T06:30:34;20.40;57.40
68480;DHT22;55469;48.934;12.050;2023-07-22T06:36:41;20.40;57.40
68480;DHT22;55469;48.934;12.050;2023-07-22T06:42:47;20.40;57.90
68480;DHT22;55469;48.934;12.050;2023-07-22T06:45:13;20.30;57.60
68480;DHT22;55469;48.934;12.050;2023-07-22T06:47:38;20.30;57.40
68480;DHT22;55469;48.934;12.050;2023-07-22T06:50:05;20.30;57.60
68480;DHT22;55469;48.934;12.050;2023-07-22T06:52:31;20.30;57.60
68480;DHT22;55469;48.934;12.050;2023-07-22T06:54:57;20.30;57.30
68480;DHT22;55469;48.934;12.050;2023-07-22T06:57:23;20.30;57.50
68480;DHT22;55469;48.934;12.050;2023-07-22T06:59:53;20.30;57.80
68480;DHT22;55469;48.934;12.050;2023-07-22T07:02:19;20.30;57.90
68480;DHT22;55469;48.934;12.050;2023-07-22T07:04:44;20.30;57.80
68480;DHT22;55469;48.934;12.050;2023-07-22T07:07:11;20.30;57.70
68480;DHT22;55469;48.934;12.050;2023-07-22T07:09:38;20.30;57.70
68480;DHT22;55469;48.934;12.050;2023-07-22T07:12:04;20.30;58.20
68480;DHT22;55469;48.934;12.050;2023-07-22T07:14:30;20.30;58.20
68480;DHT22;55469;48.934;12.050;2023-07-22T07:16:56;20.30;57.90
68480;DHT22;55469;48.934;12.050;2023-07-22T07:23:02;20.30;58.30
68480;DHT22;55469;48.934;12.050;2023-07-22T07:25:28;20.30;58.30
68480;DHT22;55469;48.934;12.050;2023-07-22T07:31:12;20.30;58.20
68480;DHT22;55469;48.934;12.050;2023-07-22T07:33:37;20.30;58.20
68480;DHT22;55469;48.934;12.050;2023-07-22T07:36:03;20.30;58.20
68480;DHT22;55469;48.934;12.050;2023-07-22T07:42:10;20.30;58.40
68480;DHT22;55469;48.934;12.050;2023-07-22T07:44:41;20.30;59.20
68480;DHT22;55469;48.934;12.050;2023-07-22T07:47:07;20.30;58.40
68480;DHT22;55469;48.934;12.050;2023-07-22T07:49:35;20.30;58.20
68480;DHT22;55469;48.934;12.050;2023-07-22T07:52:01;20.30;58.20
68480;DHT22;55469;48.934;12.050;2023-07-22T07:54:27;20.30;58.20
68480;DHT22;55469;48.934;12.050;2023-07-22T07:56:53;20.30;58.10
68480;DHT22;55469;48.934;12.050;2023-07-22T07:59:18;20.30;58.20
68480;DHT22;55469;48.934;12.050;2023-07-22T08:01:44;20.30;58.30
68480;DHT22;55469;48.934;12.050;2023-07-22T08:04:10;20.40;58.60
68480;DHT22;55469;48.934;12.050;2023-07-22T08:06:36;20.40;58.60
68480;DHT22;55469;48.934;12.050;2023-07-22T08:09:03;20.40;58.60
68480;DHT22;55469;48.934;12.050;2023-07-22T08:11:30;20.40;58.60
68480;DHT22;55469;48.934;12.050;2023-07-22T08:13:56;20.40;58.70
68480;DHT22;55469;48.934;12.050;2023-07-22T08:16:22;20.40;58.70
68480;DHT22;55469;48.934;12.050;2023-07-22T08:18:50;20.30;58.80
68480;DHT22;55469;48.934;12.050;2023-07-22T08:21:15;20.40;58.60
68480;DHT22;55469;48.934;12.050;2023-07-22T08:23:41;20.40;58.60
68480;DHT22;55469;48.934;12.050;2023-07-22T08:26:11;20.40;58.70
68480;DHT22;55469;48.934;12.050;2023-07-22T08:28:36;20.40;58.70
68480;DHT22;55469;48.934;12.050;2023-07-22T08:31:02;20.40;58.50
68480;DHT22;55469;48.934;12.050;2023-07-22T08:33:29;20.40;58.70
68480;DHT22;55469;48.934;12.050;2023-07-22T08:35:55;20.50;58.40
68480;DHT22;55469;48.934;12.050;2023-07-22T08:38:21;20.40;58.50
68480;DHT22;55469;48.934;12.050;2023-07-22T08:40:49;20.40;58.30
68480;DHT22;55469;48.934;12.050;2023-07-22T08:43:20;20.50;58.40
68480;DHT22;55469;48.934;12.050;2023-07-22T08:45:48;20.50;59.40
68480;DHT22;55469;48.934;12.050;2023-07-22T08:48:17;20.50;58.40
68480;DHT22;55469;48.934;12.050;2023-07-22T08:50:55;20.50;58.20
68480;DHT22;55469;48.934;12.050;2023-07-22T08:53:24;20.50;58.50
68480;DHT22;55469;48.934;12.050;2023-07-22T08:55:51;20.50;58.40
68480;DHT22;55469;48.934;12.050;2023-07-22T08:58:17;20.50;58.20
68480;DHT22;55469;48.934;12.050;2023-07-22T09:00:43;20.50;58.30
68480;DHT22;55469;48.934;12.050;2023-07-22T09:03:11;20.50;58.20
68480;DHT22;55469;48.934;12.050;2023-07-22T09:05:37;20.60;58.10
68480;DHT22;55469;48.934;12.050;2023-07-22T09:08:06;20.60;58.20
68480;DHT22;55469;48.934;12.050;2023-07-22T09:10:33;20.60;58.10
68480;DHT22;55469;48.934;12.050;2023-07-22T09:13:01;20.60;58.20
68480;DHT22;55469;48.934;12.050;2023-07-22T09:15:27;20.60;59.00
68480;DHT22;55469;48.934;12.050;2023-07-22T09:17:54;20.60;57.90
68480;DHT22;55469;48.934;12.050;2023-07-22T09:20:20;20.70;57.50
68480;DHT22;55469;48.934;12.050;2023-07-22T09:22:50;20.70;57.70
68480;DHT22;55469;48.934;12.050;2023-07-22T09:25:21;20.70;57.30
68480;DHT22;55469;48.934;12.050;2023-07-22T09:27:49;20.70;57.30
68480;DHT22;55469;48.934;12.050;2023-07-22T09:30:31;20.70;57.30
68480;DHT22;55469;48.934;12.050;2023-07-22T09:33:04;20.70;57.10
68480;DHT22;55469;48.934;12.050;2023-07-22T09:35:49;20.80;57.00
68480;DHT22;55469;48.934;12.050;2023-07-22T09:38:24;20.80;56.80
68480;DHT22;55469;48.934;12.050;2023-07-22T09:40:50;20.80;57.00
68480;DHT22;55469;48.934;12.050;2023-07-22T09:43:16;20.90;56.90
68480;DHT22;55469;48.934;12.050;2023-07-22T09:45:47;20.90;57.40
68480;DHT22;55469;48.934;12.050;2023-07-22T09:48:13;20.90;56.70
68480;DHT22;55469;48.934;12.050;2023-07-22T09:50:39;20.90;56.80
68480;DHT22;55469;48.934;12.050;2023-07-22T09:53:06;20.90;56.60
68480;DHT22;55469;48.934;12.050;2023-07-22T09:55:32;20.90;57.00
68480;DHT22;55469;48.934;12.050;2023-07-22T09:58:00;21.00;56.90
68480;DHT22;55469;48.934;12.050;2023-07-22T10:00:33;21.00;56.60
68480;DHT22;55469;48.934;12.050;2023-07-22T10:03:01;21.00;57.70
68480;DHT22;55469;48.934;12.050;2023-07-22T10:05:28;21.10;57.50
68480;DHT22;55469;48.934;12.050;2023-07-22T10:07:58;21.10;56.50
68480;DHT22;55469;48.934;12.050;2023-07-22T10:10:28;21.10;56.50
68480;DHT22;55469;48.934;12.050;2023-07-22T10:12:56;21.10;56.50
68480;DHT22;55469;48.934;12.050;2023-07-22T10:15:25;21.20;56.50
68480;DHT22;55469;48.934;12.050;2023-07-22T10:18:02;21.20;57.50
68480;DHT22;55469;48.934;12.050;2023-07-22T10:20:29;21.20;56.80
68480;DHT22;55469;48.934;12.050;2023-07-22T10:22:55;21.20;56.70
68480;DHT22;55469;48.934;12.050;2023-07-22T10:25:22;21.20;56.70
68480;DHT22;55469;48.934;12.050;2023-07-22T10:27:49;21.20;57.00
68480;DHT22;55469;48.934;12.050;2023-07-22T10:30:17;21.30;57.70
68480;DHT22;55469;48.934;12.050;2023-07-22T10:32:49;21.30;56.70
68480;DHT22;55469;48.934;12.050;2023-07-22T10:37:56;21.30;56.50
68480;DHT22;55469;48.934;12.050;2023-07-22T10:40:49;21.30;57.00
68480;DHT22;55469;48.934;12.050;2023-07-22T10:43:17;21.30;57.00
68480;DHT22;55469;48.934;12.050;2023-07-22T10:45:50;21.30;57.40
68480;DHT22;55469;48.934;12.050;2023-07-22T10:48:17;21.30;57.50
68480;DHT22;55469;48.934;12.050;2023-07-22T10:50:50;21.30;57.10
68480;DHT22;55469;48.934;12.050;2023-07-22T10:53:21;21.30;56.80
68480;DHT22;55469;48.934;12.050;2023-07-22T11:11:54;21.50;56.60
68480;DHT22;55469;48.934;12.050;2023-07-22T11:14:26;21.50;56.40
68480;DHT22;55469;48.934;12.050;2023-07-22T11:16:52;21.60;56.50
68480;DHT22;55469;48.934;12.050;2023-07-22T11:19:21;21.60;56.50
68480;DHT22;55469;48.934;12.050;2023-07-22T11:21:50;21.60;56.40
68480;DHT22;55469;48.934;12.050;2023-07-22T11:24:17;21.60;56.40
68480;DHT22;55469;48.934;12.050;2023-07-22T11:26:45;21.60;56.30
68480;DHT22;55469;48.934;12.050;2023-07-22T11:29:11;21.60;56.40
68480;DHT22;55469;48.934;12.050;2023-07-22T11:31:40;21.60;56.40
68480;DHT22;55469;48.934;12.050;2023-07-22T11:36:41;21.70;56.20
68480;DHT22;55469;48.934;12.050;2023-07-22T11:39:08;21.70;56.20
68480;DHT22;55469;48.934;12.050;2023-07-22T11:41:37;21.80;56.10
68480;DHT22;55469;48.934;12.050;2023-07-22T11:44:04;21.80;56.20
68480;DHT22;55469;48.934;12.050;2023-07-22T11:47:05;21.70;56.00
68480;DHT22;55469;48.934;12.050;2023-07-22T11:49:47;21.80;55.90
68480;DHT22;55469;48.934;12.050;2023-07-22T11:52:17;21.80;55.70
68480;DHT22;55469;48.934;12.050;2023-07-22T11:54:45;21.90;55.90
68480;DHT22;55469;48.934;12.050;2023-07-22T11:57:14;21.90;55.80
68480;DHT22;55469;48.934;12.050;2023-07-22T11:59:48;21.90;55.80
68480;DHT22;55469;48.934;12.050;2023-07-22T12:02:41;22.00;55.70
68480;DHT22;55469;48.934;12.050;2023-07-22T12:05:07;22.00;55.80
68480;DHT22;55469;48.934;12.050;2023-07-22T12:07:36;22.00;55.80
68480;DHT22;55469;48.934;12.050;2023-07-22T12:10:04;22.00;55.80
68480;DHT22;55469;48.934;12.050;2023-07-22T12:12:38;22.10;55.70
68480;DHT22;55469;48.934;12.050;2023-07-22T12:15:11;22.10;55.70
68480;DHT22;55469;48.934;12.050;2023-07-22T12:18:00;22.10;55.60
68480;DHT22;55469;48.934;12.050;2023-07-22T12:20:28;22.10;55.60
68480;DHT22;55469;48.934;12.050;2023-07-22T12:22:58;22.20;55.50
68480;DHT22;55469;48.934;12.050;2023-07-22T12:25:24;22.20;55.50
68480;DHT22;55469;48.934;12.050;2023-07-22T12:27:50;22.20;55.40
68480;DHT22;55469;48.934;12.050;2023-07-22T12:30:16;22.20;55.30
68480;DHT22;55469;48.934;12.050;2023-07-22T12:32:42;22.30;55.40
68480;DHT22;55469;48.934;12.050;2023-07-22T12:35:08;22.30;55.30
68480;DHT22;55469;48.934;12.050;2023-07-22T12:37:35;22.30;55.30
68480;DHT22;55469;48.934;12.050;2023-07-22T12:40:01;22.30;55.40
68480;DHT22;55469;48.934;12.050;2023-07-22T12:42:31;22.40;55.30
68480;DHT22;55469;48.934;12.050;2023-07-22T12:44:56;22.40;55.40
68480;DHT22;55469;48.934;12.050;2023-07-22T12:47:22;22.40;55.10
68480;DHT22;55469;48.934;12.050;2023-07-22T12:49:48;22.50;55.00
68480;DHT22;55469;48.934;12.050;2023-07-22T12:52:13;22.50;54.90
68480;DHT22;55469;48.934;12.050;2023-07-22T12:54:39;22.60;55.00
68480;DHT22;55469;48.934;12.050;2023-07-22T12:57:06;22.60;55.00
68480;DHT22;55469;48.934;12.050;2023-07-22T12:59:32;22.60;54.90
68480;DHT22;55469;48.934;12.050;2023-07-22T13:01:58;22.70;54.90
68480;DHT22;55469;48.934;12.050;2023-07-22T13:04:24;22.70;54.80
68480;DHT22;55469;48.934;12.050;2023-07-22T13:06:50;22.70;54.50
68480;DHT22;55469;48.934;12.050;2023-07-22T13:09:19;22.80;54.60
68480;DHT22;55469;48.934;12.050;2023-07-22T13:11:46;22.80;54.70
68480;DHT22;55469;48.934;12.050;2023-07-22T13:14:12;22.90;54.60
68480;DHT22;55469;48.934;12.050;2023-07-22T13:16:37;22.90;54.30
68480;DHT22;55469;48.934;12.050;2023-07-22T13:19:03;23.00;54.30
68480;DHT22;55469;48.934;12.050;2023-07-22T13:21:30;23.00;54.20
68480;DHT22;55469;48.934;12.050;2023-07-22T13:23:55;23.00;53.80
68480;DHT22;55469;48.934;12.050;2023-07-22T13:26:21;23.10;53.40
68480;DHT22;55469;48.934;12.050;2023-07-22T13:28:47;23.10;53.60
68480;DHT22;55469;48.934;12.050;2023-07-22T13:31:12;23.10;53.50
68480;DHT22;55469;48.934;12.050;2023-07-22T13:33:38;23.20;53.50
68480;DHT22;55469;48.934;12.050;2023-07-22T13:36:04;23.20;53.10
68480;DHT22;55469;48.934;12.050;2023-07-22T13:38:30;23.30;53.40
68480;DHT22;55469;48.934;12.050;2023-07-22T13:40:55;23.30;53.20
68480;DHT22;55469;48.934;12.050;2023-07-22T13:43:21;23.30;53.20
68480;DHT22;55469;48.934;12.050;2023-07-22T13:45:47;23.40;53.00
68480;DHT22;55469;48.934;12.050;2023-07-22T13:48:12;23.50;53.20
68480;DHT22;55469;48.934;12.050;2023-07-22T13:50:38;23.50;52.80
68480;DHT22;55469;48.934;12.050;2023-07-22T13:53:05;23.60;52.80
68480;DHT22;55469;48.934;12.050;2023-07-22T13:55:31;23.60;52.80
68480;DHT22;55469;48.934;12.050;2023-07-22T13:57:56;23.60;52.40
68480;DHT22;55469;48.934;12.050;2023-07-22T14:00:22;23.60;52.70
68480;DHT22;55469;48.934;12.050;2023-07-22T14:02:48;23.70;52.50
68480;DHT22;55469;48.934;12.050;2023-07-22T14:05:13;23.70;52.40
68480;DHT22;55469;48.934;12.050;2023-07-22T14:07:39;23.70;52.40
68480;DHT22;55469;48.934;12.050;2023-07-22T14:10:08;23.70;52.40
68480;DHT22;55469;48.934;12.050;2023-07-22T14:12:35;23.80;52.20
68480;DHT22;55469;48.934;12.050;2023-07-22T14:15:01;23.80;52.10
68480;DHT22;55469;48.934;12.050;2023-07-22T14:17:26;23.90;51.80
68480;DHT22;55469;48.934;12.050;2023-07-22T14:19:52;23.90;51.70
68480;DHT22;55469;48.934;12.050;2023-07-22T14:22:18;24.00;51.80
68480;DHT22;55469;48.934;12.050;2023-07-22T14:24:44;24.00;52.10
68480;DHT22;55469;48.934;12.050;2023-07-22T14:27:09;24.10;52.20
68480;DHT22;55469;48.934;12.050;2023-07-22T14:29:35;24.10;52.00
68480;DHT22;55469;48.934;12.050;2023-07-22T14:32:01;24.10;52.10
68480;DHT22;55469;48.934;12.050;2023-07-22T14:34:26;24.10;51.90
68480;DHT22;55469;48.934;12.050;2023-07-22T14:36:52;24.20;51.60
68480;DHT22;55469;48.934;12.050;2023-07-22T14:39:18;24.30;51.90
68480;DHT22;55469;48.934;12.050;2023-07-22T14:41:43;24.30;51.80
68480;DHT22;55469;48.934;12.050;2023-07-22T14:44:09;24.40;51.60
68480;DHT22;55469;48.934;12.050;2023-07-22T14:46:35;24.40;51.30
68480;DHT22;55469;48.934;12.050;2023-07-22T14:49:01;24.40;51.60
68480;DHT22;55469;48.934;12.050;2023-07-22T14:51:27;24.40;51.40
68480;DHT22;55469;48.934;12.050;2023-07-22T14:53:53;24.40;51.50
68480;DHT22;55469;48.934;12.050;2023-07-22T14:56:19;24.40;51.40
68480;DHT22;55469;48.934;12.050;2023-07-22T14:58:45;24.40;50.90
68480;DHT22;55469;48.934;12.050;2023-07-22T15:01:11;24.40;51.30
68480;DHT22;55469;48.934;12.050;2023-07-22T15:03:37;24.50;51.30
68480;DHT22;55469;48.934;12.050;2023-07-22T15:06:06;24.50;51.70
68480;DHT22;55469;48.934;12.050;2023-07-22T15:08:32;24.50;51.30
68480;DHT22;55469;48.934;12.050;2023-07-22T15:10:58;24.50;51.30
68480;DHT22;55469;48.934;12.050;2023-07-22T15:13:24;24.60;52.30
68480;DHT22;55469;48.934;12.050;2023-07-22T15:15:50;24.60;51.50
68480;DHT22;55469;48.934;12.050;2023-07-22T15:18:17;24.60;50.20
68480;DHT22;55469;48.934;12.050;2023-07-22T15:20:43;24.60;50.30
68480;DHT22;55469;48.934;12.050;2023-07-22T15:23:13;24.70;49.80
68480;DHT22;55469;48.934;12.050;2023-07-22T15:25:39;24.70;50.20
68480;DHT22;55469;48.934;12.050;2023-07-22T15:28:05;24.80;50.10
68480;DHT22;55469;48.934;12.050;2023-07-22T15:30:31;24.80;50.60
68480;DHT22;55469;48.934;12.050;2023-07-22T15:32:57;24.80;50.50
68480;DHT22;55469;48.934;12.050;2023-07-22T15:35:23;24.80;50.50
68480;DHT22;55469;48.934;12.050;2023-07-22T15:37:49;24.90;50.60
68480;DHT22;55469;48.934;12.050;2023-07-22T15:40:14;24.90;50.50
68480;DHT22;55469;48.934;12.050;2023-07-22T15:42:40;25.00;50.50
68480;DHT22;55469;48.934;12.050;2023-07-22T15:45:06;25.00;50.20
68480;DHT22;55469;48.934;12.050;2023-07-22T15:47:34;25.00;50.00
68480;DHT22;55469;48.934;12.050;2023-07-22T15:50:00;25.10;49.70
68480;DHT22;55469;48.934;12.050;2023-07-22T15:52:26;25.20;49.70
68480;DHT22;55469;48.934;12.050;2023-07-22T15:54:52;25.20;50.70
68480;DHT22;55469;48.934;12.050;2023-07-22T16:00:35;25.30;49.80
68480;DHT22;55469;48.934;12.050;2023-07-22T16:03:01;25.30;49.90
68480;DHT22;55469;48.934;12.050;2023-07-22T16:05:26;25.40;49.70
68480;DHT22;55469;48.934;12.050;2023-07-22T16:07:52;25.40;49.50
68480;DHT22;55469;48.934;12.050;2023-07-22T16:10:18;25.50;49.50
68480;DHT22;55469;48.934;12.050;2023-07-22T16:12:43;25.50;49.10
68480;DHT22;55469;48.934;12.050;2023-07-22T16:15:09;25.50;49.60
68480;DHT22;55469;48.934;12.050;2023-07-22T16:17:42;25.50;49.70
68480;DHT22;55469;48.934;12.050;2023-07-22T16:20:09;25.60;49.10
68480;DHT22;55469;48.934;12.050;2023-07-22T16:22:38;25.60;49.70
68480;DHT22;55469;48.934;12.050;2023-07-22T16:25:03;25.70;49.50
68480;DHT22;55469;48.934;12.050;2023-07-22T16:27:29;25.70;49.40
68480;DHT22;55469;48.934;12.050;2023-07-22T16:29:55;25.80;49.50
68480;DHT22;55469;48.934;12.050;2023-07-22T16:32:22;25.80;48.40